Terminal Aerodrome Forecast
Issued by NWS

Home | Current Version | Previous Version | Text Only | Print | Product List | Glossary Off
Versions: 1 2 3 4 5 6 7 8 9 10 11 12 13 14 15 16 17 18 19 20 21

000
FTUS43 KTOP 151500 AAB
TAFMHK
TAF AMD
KMHK 151514Z 1515/1612 31014G22KT 2SM RA SCT008 OVC050
     FM151630 30015G23KT P6SM OVC012
     FM152100 30015G23KT P6SM OVC025=

USA.gov is the U.S. government's official web portal to all federal, state and local government web resources and services.